sensor_id;sensor_type;location;lat;lon;timestamp;P1;durP1;ratioP1;P2;durP2;ratioP2
2053;SDS011;1032;52.542;13.440;2023-02-03T00:02:02;7.50;;;4.60;;
2053;SDS011;1032;52.542;13.440;2023-02-03T00:04:29;8.67;;;3.90;;
2053;SDS011;1032;52.542;13.440;2023-02-03T00:06:55;14.65;;;5.60;;
2053;SDS011;1032;52.542;13.440;2023-02-03T00:09:23;14.85;;;5.20;;
2053;SDS011;1032;52.542;13.440;2023-02-03T00:11:51;9.57;;;4.72;;
2053;SDS011;1032;52.542;13.440;2023-02-03T00:14:18;8.90;;;4.75;;
2053;SDS011;1032;52.542;13.440;2023-02-03T00:16:45;14.88;;;5.28;;
2053;SDS011;1032;52.542;13.440;2023-02-03T00:19:11;10.98;;;4.18;;
2053;SDS011;1032;52.542;13.440;2023-02-03T00:21:38;11.27;;;4.70;;
2053;SDS011;1032;52.542;13.440;2023-02-03T00:24:05;12.50;;;4.65;;
2053;SDS011;1032;52.542;13.440;2023-02-03T00:26:33;10.80;;;4.32;;
2053;SDS011;1032;52.542;13.440;2023-02-03T00:29:00;7.67;;;3.80;;
2053;SDS011;1032;52.542;13.440;2023-02-03T00:31:26;8.13;;;4.20;;
2053;SDS011;1032;52.542;13.440;2023-02-03T00:33:53;16.37;;;4.30;;
2053;SDS011;1032;52.542;13.440;2023-02-03T00:36:20;13.77;;;4.50;;
2053;SDS011;1032;52.542;13.440;2023-02-03T00:38:47;13.17;;;4.43;;
2053;SDS011;1032;52.542;13.440;2023-02-03T00:41:14;13.33;;;4.53;;
2053;SDS011;1032;52.542;13.440;2023-02-03T00:43:42;11.60;;;4.73;;
2053;SDS011;1032;52.542;13.440;2023-02-03T00:46:09;15.18;;;5.25;;
2053;SDS011;1032;52.542;13.440;2023-02-03T00:48:36;9.07;;;3.92;;
2053;SDS011;1032;52.542;13.440;2023-02-03T00:51:02;10.00;;;4.20;;
2053;SDS011;1032;52.542;13.440;2023-02-03T00:53:30;12.27;;;4.45;;
2053;SDS011;1032;52.542;13.440;2023-02-03T00:55:56;14.27;;;4.20;;
2053;SDS011;1032;52.542;13.440;2023-02-03T00:58:23;9.18;;;4.75;;
2053;SDS011;1032;52.542;13.440;2023-02-03T01:00:51;11.55;;;3.95;;
2053;SDS011;1032;52.542;13.440;2023-02-03T01:03:19;11.68;;;4.22;;
2053;SDS011;1032;52.542;13.440;2023-02-03T01:05:46;8.48;;;4.60;;
2053;SDS011;1032;52.542;13.440;2023-02-03T01:08:12;18.93;;;4.80;;
2053;SDS011;1032;52.542;13.440;2023-02-03T01:10:39;12.23;;;4.22;;
2053;SDS011;1032;52.542;13.440;2023-02-03T01:13:05;14.82;;;5.72;;
2053;SDS011;1032;52.542;13.440;2023-02-03T01:15:32;16.25;;;5.00;;
2053;SDS011;1032;52.542;13.440;2023-02-03T01:18:00;9.05;;;3.95;;
2053;SDS011;1032;52.542;13.440;2023-02-03T01:20:27;10.30;;;4.93;;
2053;SDS011;1032;52.542;13.440;2023-02-03T01:22:53;15.70;;;4.82;;
2053;SDS011;1032;52.542;13.440;2023-02-03T01:25:20;7.57;;;3.88;;
2053;SDS011;1032;52.542;13.440;2023-02-03T01:27:46;13.52;;;4.25;;
2053;SDS011;1032;52.542;13.440;2023-02-03T01:30:13;10.15;;;4.82;;
2053;SDS011;1032;52.542;13.440;2023-02-03T01:32:40;8.90;;;4.50;;
2053;SDS011;1032;52.542;13.440;2023-02-03T01:35:08;9.85;;;4.47;;
2053;SDS011;1032;52.542;13.440;2023-02-03T01:37:35;8.75;;;4.90;;
2053;SDS011;1032;52.542;13.440;2023-02-03T01:40:01;11.10;;;4.65;;
2053;SDS011;1032;52.542;13.440;2023-02-03T01:42:30;7.93;;;4.55;;
2053;SDS011;1032;52.542;13.440;2023-02-03T01:44:58;9.02;;;4.60;;
2053;SDS011;1032;52.542;13.440;2023-02-03T01:47:27;12.18;;;5.28;;
2053;SDS011;1032;52.542;13.440;2023-02-03T01:50:05;13.02;;;5.15;;
2053;SDS011;1032;52.542;13.440;2023-02-03T01:52:39;7.10;;;4.50;;
2053;SDS011;1032;52.542;13.440;2023-02-03T01:55:09;10.70;;;5.22;;
2053;SDS011;1032;52.542;13.440;2023-02-03T01:57:39;6.25;;;4.70;;
2053;SDS011;1032;52.542;13.440;2023-02-03T02:00:10;8.23;;;5.63;;
2053;SDS011;1032;52.542;13.440;2023-02-03T02:02:40;6.50;;;4.40;;
2053;SDS011;1032;52.542;13.440;2023-02-03T02:05:12;9.10;;;5.00;;
2053;SDS011;1032;52.542;13.440;2023-02-03T02:07:44;8.63;;;5.18;;
2053;SDS011;1032;52.542;13.440;2023-02-03T02:10:12;9.68;;;4.93;;
2053;SDS011;1032;52.542;13.440;2023-02-03T02:12:40;9.95;;;5.10;;
2053;SDS011;1032;52.542;13.440;2023-02-03T02:15:07;6.13;;;4.47;;
2053;SDS011;1032;52.542;13.440;2023-02-03T02:17:38;7.18;;;4.63;;
2053;SDS011;1032;52.542;13.440;2023-02-03T02:20:28;8.07;;;5.55;;
2053;SDS011;1032;52.542;13.440;2023-02-03T02:23:08;6.05;;;5.15;;
2053;SDS011;1032;52.542;13.440;2023-02-03T02:25:55;6.15;;;4.65;;
2053;SDS011;1032;52.542;13.440;2023-02-03T02:28:45;7.30;;;5.18;;
2053;SDS011;1032;52.542;13.440;2023-02-03T02:34:24;9.18;;;5.28;;
2053;SDS011;1032;52.542;13.440;2023-02-03T02:37:01;9.00;;;5.88;;
2053;SDS011;1032;52.542;13.440;2023-02-03T02:39:36;6.80;;;4.60;;
2053;SDS011;1032;52.542;13.440;2023-02-03T02:42:09;8.32;;;5.60;;
2053;SDS011;1032;52.542;13.440;2023-02-03T02:44:42;7.22;;;5.50;;
2053;SDS011;1032;52.542;13.440;2023-02-03T02:47:16;8.43;;;5.72;;
2053;SDS011;1032;52.542;13.440;2023-02-03T02:49:46;8.20;;;5.10;;
2053;SDS011;1032;52.542;13.440;2023-02-03T02:52:19;7.32;;;5.35;;
2053;SDS011;1032;52.542;13.440;2023-02-03T02:54:50;7.88;;;5.40;;
2053;SDS011;1032;52.542;13.440;2023-02-03T02:57:22;7.45;;;4.82;;
2053;SDS011;1032;52.542;13.440;2023-02-03T02:59:52;7.68;;;5.50;;
2053;SDS011;1032;52.542;13.440;2023-02-03T03:02:21;5.80;;;5.30;;
2053;SDS011;1032;52.542;13.440;2023-02-03T03:04:48;6.82;;;5.35;;
2053;SDS011;1032;52.542;13.440;2023-02-03T03:07:17;5.78;;;4.70;;
2053;SDS011;1032;52.542;13.440;2023-02-03T03:09:47;6.35;;;4.28;;
2053;SDS011;1032;52.542;13.440;2023-02-03T03:12:17;6.63;;;4.07;;
2053;SDS011;1032;52.542;13.440;2023-02-03T03:14:49;4.95;;;4.13;;
2053;SDS011;1032;52.542;13.440;2023-02-03T03:17:22;4.85;;;4.32;;
2053;SDS011;1032;52.542;13.440;2023-02-03T03:19:53;5.57;;;4.53;;
2053;SDS011;1032;52.542;13.440;2023-02-03T03:22:23;4.70;;;4.07;;
2053;SDS011;1032;52.542;13.440;2023-02-03T03:24:54;6.55;;;4.38;;
2053;SDS011;1032;52.542;13.440;2023-02-03T03:27:27;6.65;;;4.25;;
2053;SDS011;1032;52.542;13.440;2023-02-03T03:29:59;3.95;;;3.55;;
2053;SDS011;1032;52.542;13.440;2023-02-03T03:32:29;5.68;;;3.15;;
2053;SDS011;1032;52.542;13.440;2023-02-03T03:34:57;4.30;;;3.90;;
2053;SDS011;1032;52.542;13.440;2023-02-03T03:37:27;4.85;;;3.47;;
2053;SDS011;1032;52.542;13.440;2023-02-03T03:39:59;4.30;;;3.55;;
2053;SDS011;1032;52.542;13.440;2023-02-03T03:42:31;5.55;;;4.32;;
2053;SDS011;1032;52.542;13.440;2023-02-03T03:45:04;4.47;;;3.75;;
2053;SDS011;1032;52.542;13.440;2023-02-03T03:47:38;4.50;;;3.78;;
2053;SDS011;1032;52.542;13.440;2023-02-03T03:50:14;4.88;;;3.13;;
2053;SDS011;1032;52.542;13.440;2023-02-03T03:52:43;4.15;;;3.47;;
2053;SDS011;1032;52.542;13.440;2023-02-03T03:55:11;3.75;;;3.25;;
2053;SDS011;1032;52.542;13.440;2023-02-03T03:57:42;4.90;;;4.13;;
2053;SDS011;1032;52.542;13.440;2023-02-03T04:00:14;4.53;;;4.10;;
2053;SDS011;1032;52.542;13.440;2023-02-03T04:02:47;7.13;;;3.63;;
2053;SDS011;1032;52.542;13.440;2023-02-03T04:05:17;3.30;;;2.97;;
2053;SDS011;1032;52.542;13.440;2023-02-03T04:07:45;6.07;;;4.50;;
2053;SDS011;1032;52.542;13.440;2023-02-03T04:10:15;4.07;;;3.67;;
2053;SDS011;1032;52.542;13.440;2023-02-03T04:12:47;4.45;;;4.00;;
2053;SDS011;1032;52.542;13.440;2023-02-03T04:15:13;4.18;;;3.60;;
2053;SDS011;1032;52.542;13.440;2023-02-03T04:17:40;3.85;;;3.40;;
2053;SDS011;1032;52.542;13.440;2023-02-03T04:20:09;12.38;;;8.80;;
2053;SDS011;1032;52.542;13.440;2023-02-03T04:22:36;5.80;;;4.32;;
2053;SDS011;1032;52.542;13.440;2023-02-03T04:25:03;4.50;;;3.97;;
2053;SDS011;1032;52.542;13.440;2023-02-03T04:27:31;5.20;;;3.57;;
2053;SDS011;1032;52.542;13.440;2023-02-03T04:29:57;4.00;;;3.60;;
2053;SDS011;1032;52.542;13.440;2023-02-03T04:32:24;5.18;;;4.55;;
2053;SDS011;1032;52.542;13.440;2023-02-03T04:34:51;5.88;;;4.95;;
2053;SDS011;1032;52.542;13.440;2023-02-03T04:37:19;5.40;;;4.33;;
2053;SDS011;1032;52.542;13.440;2023-02-03T04:39:47;5.60;;;5.00;;
2053;SDS011;1032;52.542;13.440;2023-02-03T04:42:15;6.10;;;5.50;;
2053;SDS011;1032;52.542;13.440;2023-02-03T04:44:42;7.10;;;5.82;;
2053;SDS011;1032;52.542;13.440;2023-02-03T04:47:08;7.03;;;6.30;;
2053;SDS011;1032;52.542;13.440;2023-02-03T04:49:35;9.50;;;6.85;;
2053;SDS011;1032;52.542;13.440;2023-02-03T04:52:01;8.32;;;7.25;;
2053;SDS011;1032;52.542;13.440;2023-02-03T04:54:30;8.85;;;7.15;;
2053;SDS011;1032;52.542;13.440;2023-02-03T04:56:56;13.80;;;8.75;;
2053;SDS011;1032;52.542;13.440;2023-02-03T04:59:23;8.00;;;6.82;;
2053;SDS011;1032;52.542;13.440;2023-02-03T05:01:50;9.87;;;8.43;;
2053;SDS011;1032;52.542;13.440;2023-02-03T05:04:17;9.17;;;7.90;;
2053;SDS011;1032;52.542;13.440;2023-02-03T05:06:43;9.40;;;7.80;;
2053;SDS011;1032;52.542;13.440;2023-02-03T05:09:10;12.27;;;8.43;;
2053;SDS011;1032;52.542;13.440;2023-02-03T05:11:38;11.60;;;9.80;;
2053;SDS011;1032;52.542;13.440;2023-02-03T05:14:04;11.20;;;9.60;;
2053;SDS011;1032;52.542;13.440;2023-02-03T05:16:31;12.33;;;10.17;;
2053;SDS011;1032;52.542;13.440;2023-02-03T05:18:58;15.10;;;10.07;;
2053;SDS011;1032;52.542;13.440;2023-02-03T05:21:25;14.00;;;10.98;;
2053;SDS011;1032;52.542;13.440;2023-02-03T05:23:51;14.90;;;11.83;;
2053;SDS011;1032;52.542;13.440;2023-02-03T05:26:18;12.98;;;11.60;;
2053;SDS011;1032;52.542;13.440;2023-02-03T05:28:46;17.20;;;13.43;;
2053;SDS011;1032;52.542;13.440;2023-02-03T05:31:12;16.33;;;12.57;;
2053;SDS011;1032;52.542;13.440;2023-02-03T05:33:39;18.53;;;13.67;;
2053;SDS011;1032;52.542;13.440;2023-02-03T05:36:06;19.57;;;14.90;;
2053;SDS011;1032;52.542;13.440;2023-02-03T05:38:33;20.20;;;15.87;;
2053;SDS011;1032;52.542;13.440;2023-02-03T05:41:00;19.87;;;16.40;;
2053;SDS011;1032;52.542;13.440;2023-02-03T05:43:45;22.70;;;16.73;;
2053;SDS011;1032;52.542;13.440;2023-02-03T05:46:12;24.70;;;19.30;;
2053;SDS011;1032;52.542;13.440;2023-02-03T05:48:39;24.47;;;18.57;;
2053;SDS011;1032;52.542;13.440;2023-02-03T05:51:05;24.90;;;17.90;;
2053;SDS011;1032;52.542;13.440;2023-02-03T05:53:32;27.37;;;20.27;;
2053;SDS011;1032;52.542;13.440;2023-02-03T05:55:58;25.07;;;17.97;;
2053;SDS011;1032;52.542;13.440;2023-02-03T05:58:25;26.83;;;20.60;;
2053;SDS011;1032;52.542;13.440;2023-02-03T06:00:53;25.17;;;19.20;;
2053;SDS011;1032;52.542;13.440;2023-02-03T06:03:20;23.90;;;17.97;;
2053;SDS011;1032;52.542;13.440;2023-02-03T06:05:47;27.53;;;19.90;;
2053;SDS011;1032;52.542;13.440;2023-02-03T06:08:13;28.33;;;21.47;;
2053;SDS011;1032;52.542;13.440;2023-02-03T06:10:40;31.67;;;21.30;;
2053;SDS011;1032;52.542;13.440;2023-02-03T06:13:08;26.93;;;21.83;;
2053;SDS011;1032;52.542;13.440;2023-02-03T06:15:36;30.23;;;20.80;;
2053;SDS011;1032;52.542;13.440;2023-02-03T06:18:04;30.13;;;20.70;;
2053;SDS011;1032;52.542;13.440;2023-02-03T06:20:31;31.57;;;21.60;;
2053;SDS011;1032;52.542;13.440;2023-02-03T06:22:58;28.97;;;22.00;;
2053;SDS011;1032;52.542;13.440;2023-02-03T06:25:25;31.13;;;23.10;;
2053;SDS011;1032;52.542;13.440;2023-02-03T06:27:52;29.23;;;23.13;;
2053;SDS011;1032;52.542;13.440;2023-02-03T06:30:19;32.07;;;21.40;;
2053;SDS011;1032;52.542;13.440;2023-02-03T06:32:47;28.73;;;21.90;;
2053;SDS011;1032;52.542;13.440;2023-02-03T06:35:16;30.63;;;21.90;;
2053;SDS011;1032;52.542;13.440;2023-02-03T06:37:43;26.50;;;20.87;;
2053;SDS011;1032;52.542;13.440;2023-02-03T06:40:09;29.40;;;20.60;;
2053;SDS011;1032;52.542;13.440;2023-02-03T06:42:37;30.70;;;21.07;;
2053;SDS011;1032;52.542;13.440;2023-02-03T06:45:04;26.90;;;19.40;;
2053;SDS011;1032;52.542;13.440;2023-02-03T06:47:32;21.17;;;18.87;;
2053;SDS011;1032;52.542;13.440;2023-02-03T06:49:59;31.03;;;21.10;;
2053;SDS011;1032;52.542;13.440;2023-02-03T06:52:27;30.30;;;20.63;;
2053;SDS011;1032;52.542;13.440;2023-02-03T06:54:54;27.63;;;20.77;;
2053;SDS011;1032;52.542;13.440;2023-02-03T06:57:21;27.17;;;19.03;;
2053;SDS011;1032;52.542;13.440;2023-02-03T06:59:47;23.97;;;20.03;;
2053;SDS011;1032;52.542;13.440;2023-02-03T07:02:14;25.83;;;18.77;;
2053;SDS011;1032;52.542;13.440;2023-02-03T07:04:41;27.13;;;19.93;;
2053;SDS011;1032;52.542;13.440;2023-02-03T07:07:09;27.40;;;19.00;;
2053;SDS011;1032;52.542;13.440;2023-02-03T07:09:37;21.97;;;18.07;;
2053;SDS011;1032;52.542;13.440;2023-02-03T07:12:04;24.57;;;18.23;;
2053;SDS011;1032;52.542;13.440;2023-02-03T07:14:30;26.90;;;19.93;;
2053;SDS011;1032;52.542;13.440;2023-02-03T07:16:59;25.83;;;18.77;;
2053;SDS011;1032;52.542;13.440;2023-02-03T07:19:26;25.20;;;19.70;;
2053;SDS011;1032;52.542;13.440;2023-02-03T07:21:52;21.27;;;17.87;;
2053;SDS011;1032;52.542;13.440;2023-02-03T07:24:19;21.03;;;17.37;;
2053;SDS011;1032;52.542;13.440;2023-02-03T07:26:47;28.13;;;19.13;;
2053;SDS011;1032;52.542;13.440;2023-02-03T07:29:14;20.97;;;17.40;;
2053;SDS011;1032;52.542;13.440;2023-02-03T07:31:40;23.50;;;19.00;;
2053;SDS011;1032;52.542;13.440;2023-02-03T07:34:07;28.70;;;17.97;;
2053;SDS011;1032;52.542;13.440;2023-02-03T07:36:34;23.70;;;17.30;;
2053;SDS011;1032;52.542;13.440;2023-02-03T07:39:01;25.87;;;17.10;;
2053;SDS011;1032;52.542;13.440;2023-02-03T07:41:28;19.73;;;16.40;;
2053;SDS011;1032;52.542;13.440;2023-02-03T07:43:56;21.40;;;17.70;;
2053;SDS011;1032;52.542;13.440;2023-02-03T07:46:22;20.73;;;17.40;;
2053;SDS011;1032;52.542;13.440;2023-02-03T07:48:49;21.50;;;15.23;;
2053;SDS011;1032;52.542;13.440;2023-02-03T07:51:16;20.70;;;15.80;;
2053;SDS011;1032;52.542;13.440;2023-02-03T07:53:42;17.07;;;15.30;;
2053;SDS011;1032;52.542;13.440;2023-02-03T07:56:09;20.00;;;13.70;;
2053;SDS011;1032;52.542;13.440;2023-02-03T07:58:37;22.40;;;14.50;;
2053;SDS011;1032;52.542;13.440;2023-02-03T08:01:09;21.97;;;15.60;;
2053;SDS011;1032;52.542;13.440;2023-02-03T08:03:37;15.80;;;13.70;;
2053;SDS011;1032;52.542;13.440;2023-02-03T08:06:04;22.33;;;13.90;;
2053;SDS011;1032;52.542;13.440;2023-02-03T08:08:31;20.57;;;13.37;;
2053;SDS011;1032;52.542;13.440;2023-02-03T08:10:57;20.13;;;13.37;;
2053;SDS011;1032;52.542;13.440;2023-02-03T08:13:24;21.73;;;13.63;;
2053;SDS011;1032;52.542;13.440;2023-02-03T08:15:51;14.60;;;11.77;;
2053;SDS011;1032;52.542;13.440;2023-02-03T08:18:19;17.10;;;13.00;;
2053;SDS011;1032;52.542;13.440;2023-02-03T08:20:46;16.40;;;11.53;;
2053;SDS011;1032;52.542;13.440;2023-02-03T08:23:13;11.93;;;10.70;;
2053;SDS011;1032;52.542;13.440;2023-02-03T08:25:40;12.20;;;10.50;;
2053;SDS011;1032;52.542;13.440;2023-02-03T08:28:06;12.23;;;11.00;;
2053;SDS011;1032;52.542;13.440;2023-02-03T08:30:33;13.40;;;11.53;;
2053;SDS011;1032;52.542;13.440;2023-02-03T08:33:00;20.30;;;11.40;;
2053;SDS011;1032;52.542;13.440;2023-02-03T08:35:28;12.37;;;10.50;;
2053;SDS011;1032;52.542;13.440;2023-02-03T08:37:55;14.10;;;10.57;;
2053;SDS011;1032;52.542;13.440;2023-02-03T08:40:22;12.50;;;9.10;;
2053;SDS011;1032;52.542;13.440;2023-02-03T08:42:48;13.07;;;9.70;;
2053;SDS011;1032;52.542;13.440;2023-02-03T08:45:15;14.07;;;9.90;;
2053;SDS011;1032;52.542;13.440;2023-02-03T08:47:42;13.90;;;9.67;;
2053;SDS011;1032;52.542;13.440;2023-02-03T08:50:09;11.87;;;9.57;;
2053;SDS011;1032;52.542;13.440;2023-02-03T08:52:37;10.87;;;9.47;;
2053;SDS011;1032;52.542;13.440;2023-02-03T08:55:04;10.33;;;8.93;;
2053;SDS011;1032;52.542;13.440;2023-02-03T08:57:31;14.23;;;10.27;;
2053;SDS011;1032;52.542;13.440;2023-02-03T08:59:59;9.80;;;8.57;;
2053;SDS011;1032;52.542;13.440;2023-02-03T09:02:26;13.30;;;8.73;;
2053;SDS011;1032;52.542;13.440;2023-02-03T09:04:52;11.30;;;9.63;;
2053;SDS011;1032;52.542;13.440;2023-02-03T09:07:19;9.70;;;8.40;;
2053;SDS011;1032;52.542;13.440;2023-02-03T09:09:47;9.43;;;8.47;;
2053;SDS011;1032;52.542;13.440;2023-02-03T09:12:14;10.03;;;8.00;;
2053;SDS011;1032;52.542;13.440;2023-02-03T09:14:41;8.83;;;7.90;;
2053;SDS011;1032;52.542;13.440;2023-02-03T09:17:08;9.77;;;7.70;;
2053;SDS011;1032;52.542;13.440;2023-02-03T09:19:35;8.30;;;7.10;;
2053;SDS011;1032;52.542;13.440;2023-02-03T09:22:02;10.10;;;7.73;;
2053;SDS011;1032;52.542;13.440;2023-02-03T09:24:29;9.00;;;7.43;;
2053;SDS011;1032;52.542;13.440;2023-02-03T09:26:57;12.07;;;9.60;;
2053;SDS011;1032;52.542;13.440;2023-02-03T09:29:25;9.77;;;7.17;;
2053;SDS011;1032;52.542;13.440;2023-02-03T09:31:51;8.83;;;7.23;;
2053;SDS011;1032;52.542;13.440;2023-02-03T09:34:18;7.70;;;6.03;;
2053;SDS011;1032;52.542;13.440;2023-02-03T09:36:45;7.73;;;7.00;;
2053;SDS011;1032;52.542;13.440;2023-02-03T09:39:12;9.20;;;6.43;;
2053;SDS011;1032;52.542;13.440;2023-02-03T09:44:33;9.63;;;6.50;;
2053;SDS011;1032;52.542;13.440;2023-02-03T09:47:09;7.17;;;5.93;;
2053;SDS011;1032;52.542;13.440;2023-02-03T09:49:38;7.97;;;7.17;;
2053;SDS011;1032;52.542;13.440;2023-02-03T09:52:08;8.63;;;6.80;;
2053;SDS011;1032;52.542;13.440;2023-02-03T09:54:39;6.50;;;5.70;;
2053;SDS011;1032;52.542;13.440;2023-02-03T09:57:12;8.10;;;6.03;;
2053;SDS011;1032;52.542;13.440;2023-02-03T09:59:42;7.40;;;5.90;;
2053;SDS011;1032;52.542;13.440;2023-02-03T10:02:14;5.97;;;5.40;;
2053;SDS011;1032;52.542;13.440;2023-02-03T10:04:51;5.00;;;4.50;;
2053;SDS011;1032;52.542;13.440;2023-02-03T10:07:25;6.37;;;5.57;;
2053;SDS011;1032;52.542;13.440;2023-02-03T10:09:59;7.87;;;6.27;;
2053;SDS011;1032;52.542;13.440;2023-02-03T10:12:44;6.47;;;5.70;;
2053;SDS011;1032;52.542;13.440;2023-02-03T10:15:29;6.00;;;4.87;;
2053;SDS011;1032;52.542;13.440;2023-02-03T10:18:25;7.77;;;5.50;;
2053;SDS011;1032;52.542;13.440;2023-02-03T10:20:57;7.10;;;5.40;;
2053;SDS011;1032;52.542;13.440;2023-02-03T10:23:28;11.00;;;4.90;;
2053;SDS011;1032;52.542;13.440;2023-02-03T10:25:57;6.47;;;4.57;;
2053;SDS011;1032;52.542;13.440;2023-02-03T10:28:28;12.37;;;4.67;;
2053;SDS011;1032;52.542;13.440;2023-02-03T10:30:56;6.37;;;4.40;;
2053;SDS011;1032;52.542;13.440;2023-02-03T10:33:24;6.60;;;5.17;;
2053;SDS011;1032;52.542;13.440;2023-02-03T10:35:52;4.80;;;3.47;;
2053;SDS011;1032;52.542;13.440;2023-02-03T10:38:26;5.80;;;2.80;;
2053;SDS011;1032;52.542;13.440;2023-02-03T10:41:04;6.47;;;3.50;;
2053;SDS011;1032;52.542;13.440;2023-02-03T10:43:32;8.13;;;2.03;;
2053;SDS011;1032;52.542;13.440;2023-02-03T10:46:16;8.27;;;1.57;;
2053;SDS011;1032;52.542;13.440;2023-02-03T10:48:44;8.60;;;2.70;;
2053;SDS011;1032;52.542;13.440;2023-02-03T10:51:11;13.43;;;2.83;;
2053;SDS011;1032;52.542;13.440;2023-02-03T10:53:45;6.10;;;2.00;;
2053;SDS011;1032;52.542;13.440;2023-02-03T10:56:13;5.00;;;1.73;;
2053;SDS011;1032;52.542;13.440;2023-02-03T10:58:48;4.40;;;1.47;;
2053;SDS011;1032;52.542;13.440;2023-02-03T11:01:16;5.43;;;2.37;;
2053;SDS011;1032;52.542;13.440;2023-02-03T11:03:52;6.80;;;1.97;;
2053;SDS011;1032;52.542;13.440;2023-02-03T11:06:22;12.83;;;2.60;;
2053;SDS011;1032;52.542;13.440;2023-02-03T11:08:49;16.00;;;2.90;;
2053;SDS011;1032;52.542;13.440;2023-02-03T11:11:20;8.03;;;2.77;;
2053;SDS011;1032;52.542;13.440;2023-02-03T11:13:53;8.80;;;2.40;;
2053;SDS011;1032;52.542;13.440;2023-02-03T11:16:21;6.33;;;2.10;;
2053;SDS011;1032;52.542;13.440;2023-02-03T11:18:56;8.73;;;3.13;;
2053;SDS011;1032;52.542;13.440;2023-02-03T11:21:25;7.87;;;2.63;;
2053;SDS011;1032;52.542;13.440;2023-02-03T11:24:02;9.90;;;2.63;;
2053;SDS011;1032;52.542;13.440;2023-02-03T11:26:32;13.47;;;3.27;;
2053;SDS011;1032;52.542;13.440;2023-02-03T11:29:02;5.87;;;2.23;;
2053;SDS011;1032;52.542;13.440;2023-02-03T11:31:33;12.13;;;3.43;;
2053;SDS011;1032;52.542;13.440;2023-02-03T11:34:03;13.73;;;2.57;;
2053;SDS011;1032;52.542;13.440;2023-02-03T11:36:31;9.40;;;2.80;;
2053;SDS011;1032;52.542;13.440;2023-02-03T11:39:13;10.83;;;3.10;;
2053;SDS011;1032;52.542;13.440;2023-02-03T11:41:43;14.80;;;4.00;;
2053;SDS011;1032;52.542;13.440;2023-02-03T11:44:15;12.50;;;3.53;;
2053;SDS011;1032;52.542;13.440;2023-02-03T11:46:43;14.27;;;3.90;;
2053;SDS011;1032;52.542;13.440;2023-02-03T11:49:18;14.83;;;4.00;;
2053;SDS011;1032;52.542;13.440;2023-02-03T11:52:06;13.70;;;3.10;;
2053;SDS011;1032;52.542;13.440;2023-02-03T11:54:48;21.87;;;4.73;;
2053;SDS011;1032;52.542;13.440;2023-02-03T11:57:24;13.60;;;4.20;;
2053;SDS011;1032;52.542;13.440;2023-02-03T12:00:04;13.17;;;4.40;;
2053;SDS011;1032;52.542;13.440;2023-02-03T12:02:58;18.93;;;4.40;;
2053;SDS011;1032;52.542;13.440;2023-02-03T12:05:47;15.47;;;4.87;;
2053;SDS011;1032;52.542;13.440;2023-02-03T12:08:27;20.70;;;5.67;;
2053;SDS011;1032;52.542;13.440;2023-02-03T12:11:06;19.50;;;4.23;;
2053;SDS011;1032;52.542;13.440;2023-02-03T12:13:54;18.13;;;5.30;;
2053;SDS011;1032;52.542;13.440;2023-02-03T12:16:57;20.40;;;5.37;;
2053;SDS011;1032;52.542;13.440;2023-02-03T12:19:50;18.47;;;5.10;;
2053;SDS011;1032;52.542;13.440;2023-02-03T12:22:28;16.60;;;4.53;;
2053;SDS011;1032;52.542;13.440;2023-02-03T12:25:03;22.73;;;3.90;;
2053;SDS011;1032;52.542;13.440;2023-02-03T12:27:43;17.60;;;5.40;;
2053;SDS011;1032;52.542;13.440;2023-02-03T12:30:19;19.23;;;6.47;;
2053;SDS011;1032;52.542;13.440;2023-02-03T12:32:52;16.73;;;5.60;;
2053;SDS011;1032;52.542;13.440;2023-02-03T12:35:24;16.40;;;3.97;;
2053;SDS011;1032;52.542;13.440;2023-02-03T12:37:57;25.00;;;5.60;;
2053;SDS011;1032;52.542;13.440;2023-02-03T12:40:28;16.80;;;5.90;;
2053;SDS011;1032;52.542;13.440;2023-02-03T12:43:03;21.80;;;5.53;;
2053;SDS011;1032;52.542;13.440;2023-02-03T12:45:44;26.10;;;5.80;;
2053;SDS011;1032;52.542;13.440;2023-02-03T12:48:18;24.23;;;6.33;;
2053;SDS011;1032;52.542;13.440;2023-02-03T12:50:49;24.00;;;5.60;;
2053;SDS011;1032;52.542;13.440;2023-02-03T12:53:20;39.03;;;6.97;;
2053;SDS011;1032;52.542;13.440;2023-02-03T12:55:52;28.77;;;4.90;;
2053;SDS011;1032;52.542;13.440;2023-02-03T12:58:25;7.33;;;2.20;;
2053;SDS011;1032;52.542;13.440;2023-02-03T13:00:55;9.60;;;1.90;;
2053;SDS011;1032;52.542;13.440;2023-02-03T13:03:27;6.83;;;2.63;;
2053;SDS011;1032;52.542;13.440;2023-02-03T13:06:00;7.50;;;2.60;;
2053;SDS011;1032;52.542;13.440;2023-02-03T13:08:34;6.67;;;1.70;;
2053;SDS011;1032;52.542;13.440;2023-02-03T13:11:06;9.37;;;1.93;;
2053;SDS011;1032;52.542;13.440;2023-02-03T13:13:39;10.43;;;3.33;;
2053;SDS011;1032;52.542;13.440;2023-02-03T13:16:09;9.10;;;3.10;;
2053;SDS011;1032;52.542;13.440;2023-02-03T13:18:40;12.57;;;3.70;;
2053;SDS011;1032;52.542;13.440;2023-02-03T13:21:10;9.73;;;3.27;;
2053;SDS011;1032;52.542;13.440;2023-02-03T13:23:38;16.83;;;4.80;;
2053;SDS011;1032;52.542;13.440;2023-02-03T13:26:18;11.20;;;3.13;;
2053;SDS011;1032;52.542;13.440;2023-02-03T13:29:02;13.93;;;3.60;;
2053;SDS011;1032;52.542;13.440;2023-02-03T13:31:40;13.70;;;3.37;;
2053;SDS011;1032;52.542;13.440;2023-02-03T13:37:20;13.50;;;3.67;;
2053;SDS011;1032;52.542;13.440;2023-02-03T13:39:59;10.87;;;3.93;;
2053;SDS011;1032;52.542;13.440;2023-02-03T13:42:37;15.93;;;3.93;;
2053;SDS011;1032;52.542;13.440;2023-02-03T13:45:12;15.60;;;4.17;;
2053;SDS011;1032;52.542;13.440;2023-02-03T13:47:45;16.97;;;4.00;;
2053;SDS011;1032;52.542;13.440;2023-02-03T13:50:20;11.03;;;3.60;;
2053;SDS011;1032;52.542;13.440;2023-02-03T13:52:52;16.93;;;4.17;;
2053;SDS011;1032;52.542;13.440;2023-02-03T13:55:25;27.93;;;4.70;;
2053;SDS011;1032;52.542;13.440;2023-02-03T13:57:55;13.37;;;4.60;;
2053;SDS011;1032;52.542;13.440;2023-02-03T14:03:42;16.83;;;4.90;;
2053;SDS011;1032;52.542;13.440;2023-02-03T14:09:32;18.73;;;4.70;;
2053;SDS011;1032;52.542;13.440;2023-02-03T14:12:12;25.10;;;6.07;;
2053;SDS011;1032;52.542;13.440;2023-02-03T14:15:02;20.37;;;5.43;;
2053;SDS011;1032;52.542;13.440;2023-02-03T14:20:38;25.23;;;5.43;;
2053;SDS011;1032;52.542;13.440;2023-02-03T14:23:14;26.93;;;5.73;;
2053;SDS011;1032;52.542;13.440;2023-02-03T14:25:50;16.87;;;4.03;;
2053;SDS011;1032;52.542;13.440;2023-02-03T14:28:21;21.77;;;5.70;;
2053;SDS011;1032;52.542;13.440;2023-02-03T14:31:02;12.90;;;4.60;;
2053;SDS011;1032;52.542;13.440;2023-02-03T14:45:30;17.30;;;5.30;;
2053;SDS011;1032;52.542;13.440;2023-02-03T14:48:28;24.73;;;5.90;;
2053;SDS011;1032;52.542;13.440;2023-02-03T14:51:12;28.53;;;7.00;;
2053;SDS011;1032;52.542;13.440;2023-02-03T14:53:55;27.47;;;7.27;;
2053;SDS011;1032;52.542;13.440;2023-02-03T14:56:39;28.03;;;6.37;;
2053;SDS011;1032;52.542;13.440;2023-02-03T14:59:36;22.30;;;6.87;;
2053;SDS011;1032;52.542;13.440;2023-02-03T15:02:09;22.60;;;6.50;;
2053;SDS011;1032;52.542;13.440;2023-02-03T15:04:40;21.13;;;5.97;;
2053;SDS011;1032;52.542;13.440;2023-02-03T15:07:07;25.33;;;6.87;;
2053;SDS011;1032;52.542;13.440;2023-02-03T15:09:36;28.87;;;6.43;;
2053;SDS011;1032;52.542;13.440;2023-02-03T15:12:14;29.17;;;7.10;;
2053;SDS011;1032;52.542;13.440;2023-02-03T15:14:44;35.07;;;7.03;;
2053;SDS011;1032;52.542;13.440;2023-02-03T15:17:11;27.57;;;7.00;;
2053;SDS011;1032;52.542;13.440;2023-02-03T15:19:45;27.10;;;6.40;;
2053;SDS011;1032;52.542;13.440;2023-02-03T15:22:19;22.97;;;6.50;;
2053;SDS011;1032;52.542;13.440;2023-02-03T15:24:47;45.17;;;7.40;;
2053;SDS011;1032;52.542;13.440;2023-02-03T15:27:20;29.63;;;7.63;;
2053;SDS011;1032;52.542;13.440;2023-02-03T15:29:50;24.37;;;6.47;;
2053;SDS011;1032;52.542;13.440;2023-02-03T15:32:18;28.60;;;6.00;;
2053;SDS011;1032;52.542;13.440;2023-02-03T15:34:53;24.90;;;6.00;;
2053;SDS011;1032;52.542;13.440;2023-02-03T15:37:22;21.37;;;5.87;;
2053;SDS011;1032;52.542;13.440;2023-02-03T15:39:56;21.73;;;5.83;;
2053;SDS011;1032;52.542;13.440;2023-02-03T15:42:28;17.83;;;4.93;;